ニジネヴァルトフスク の空港の天気 - METARとTAF

Nizhnevartovsk ( USNN / NJC ) - ロシア ニジネヴァルトフスク
飛行場実況気象(Metar)
観測時間04/30 19:30 +05 (04/30 14:30 UTC)
風向・風速西 4m/s
視程10km以上
天気現象
なし
気温1℃
湿度64%
気圧1021hPa
METARUSNN 301430Z 28004MPS CAVOK 01/M05 Q1021 R21/0///65 NOSIG RMK QFE761
過去の天気等 Google飛行場航空写真 Wunderground天気予報

過去48時間のMETAR

飛行場予報(TAF)
発表時間: 4/30 19:00 +05 (4/30 14:00 UTC)
予報対象時間: 30日20時 +05 ~ 1日20時 +05
風向・風速西 6m/s 瞬間風速 12m/s
視程4,000m
天気現象弱い雪
全天の8割程度の雲 雲底高度 910m
30日20時 +05 ~ 30日23時 +05 に一時的に
風向・風速西北西 8m/s 瞬間風速 14m/s
視程2,000m
天気現象しゅう雪 高い地吹雪
全天の8割程度の雲 雲底高度 210m
全天の8割程度の積乱雲 雲底高度 520m
30日23時 +05 ~ 1日8時 +05 に一時的に
風向・風速北西 10m/s 瞬間風速 16m/s
視程500m
天気現象強いしゅう雪 高い地吹雪
全天の8割程度の雲 雲底高度 90m
全天の8割程度の積乱雲 雲底高度 460m
TAF USNN 301400Z 3015/0115 28006G12MPS 4000 -SN BKN030
TEMPO 3015/3018 30008G14MPS 2000 SHSN BLSN BKN007 BKN017CB
TEMPO 3018/0103 32010G16MPS 0500 +SHSN BLSN BKN003 BKN015CB